Time;durP1;ratioP1;P1;durP2;ratioP2;P2;SDS_P1;SDS_P2;PMS_P1;PMS_P2;Temp;Humidity;BMP_temperature;BMP_pressure;BME280_temperature;BME280_humidity;BME280_pressure;Samples;Min_cycle;Max_cycle;Signal;HPM_P1;HPM_P2
2022/01/19 00:01:28;;;;;;;28.10;12.48;;;1.30;99.90;;;;;;2603530;54;20050;31
2022/01/19 00:04:03;;;;;;;25.65;11.85;;;1.40;99.90;;;;;;2603738;54;20026;31
2022/01/19 00:06:37;;;;;;;29.77;13.27;;;1.40;99.90;;;;;;2603675;54;20049;31
2022/01/19 00:09:11;;;;;;;25.60;11.75;;;1.40;99.90;;;;;;2603533;54;20026;31
2022/01/19 00:11:45;;;;;;;25.70;12.30;;;1.40;99.90;;;;;;2622117;46;20037;31
2022/01/19 00:14:21;;;;;;;32.45;13.55;;;1.40;99.90;;;;;;2603852;54;19934;31
2022/01/19 00:16:56;;;;;;;27.60;11.73;;;1.50;99.90;;;;;;2603711;54;20030;31
2022/01/19 00:19:31;;;;;;;25.92;12.15;;;1.50;99.90;;;;;;2603779;54;20962;31
2022/01/19 00:22:05;;;;;;;29.98;12.95;;;1.50;99.90;;;;;;2603815;54;20057;31
2022/01/19 00:24:41;;;;;;;28.30;11.75;;;1.50;99.90;;;;;;2603622;54;20081;31
2022/01/19 00:27:14;;;;;;;24.08;12.05;;;1.50;99.90;;;;;;2603663;54;20097;31
2022/01/19 00:29:51;;;;;;;26.55;11.77;;;1.50;99.90;;;;;;2603948;54;20034;31
2022/01/19 00:32:26;;;;;;;20.48;9.90;;;1.60;99.90;;;;;;2622107;46;20026;31
2022/01/19 00:35:01;;;;;;;21.73;10.40;;;1.50;99.90;;;;;;2603311;54;20929;31
2022/01/19 00:37:36;;;;;;;26.00;11.00;;;1.60;99.90;;;;;;2603511;54;20842;31
2022/01/19 00:42:41;;;;;;;22.47;10.93;;;1.60;99.90;;;;;;2603459;54;20033;31
2022/01/19 00:45:19;;;;;;;19.63;10.27;;;1.60;99.90;;;;;;2603043;54;20030;31
2022/01/19 00:47:53;;;;;;;30.50;11.90;;;1.70;99.90;;;;;;2603642;54;20101;31
2022/01/19 00:50:28;;;;;;;26.77;12.33;;;1.70;99.90;;;;;;2621879;46;20947;31
2022/01/19 00:53:02;;;;;;;26.60;11.80;;;1.70;99.90;;;;;;2603461;54;20251;31
2022/01/19 00:55:36;;;;;;;32.28;13.05;;;1.70;99.90;;;;;;2603262;54;20050;31
2022/01/19 00:58:11;;;;;;;28.65;14.10;;;1.70;99.90;;;;;;2603560;54;20033;31
2022/01/19 01:00:56;;;;;;;30.00;12.93;;;1.70;99.90;;;;;;2603517;54;20867;31
2022/01/19 01:03:31;;;;;;;25.48;12.68;;;1.70;99.90;;;;;;2603750;54;20833;31
2022/01/19 01:08:35;;;;;;;25.02;13.00;;;1.70;99.90;;;;;;2603411;54;20023;31
2022/01/19 01:11:10;;;;;;;20.80;11.10;;;1.70;99.90;;;;;;2603592;54;20744;31
2022/01/19 01:16:36;;;;;;;22.80;12.73;;;1.80;99.90;;;;;;2603475;54;20777;31
2022/01/19 01:19:12;;;;;;;21.05;12.02;;;1.80;99.90;;;;;;2603415;54;20022;31
2022/01/19 01:24:16;;;;;;;25.05;13.05;;;1.80;99.90;;;;;;2603576;54;20037;31
2022/01/19 01:26:50;;;;;;;25.80;12.70;;;1.80;99.90;;;;;;2603327;54;20816;31
2022/01/19 01:29:24;;;;;;;25.00;14.30;;;1.80;99.90;;;;;;2621644;46;20030;31
2022/01/19 01:32:02;;;;;;;25.67;14.45;;;1.80;99.90;;;;;;2603698;54;20069;31
2022/01/19 01:37:08;;;;;;;29.65;13.98;;;1.80;99.90;;;;;;2603687;54;20026;31
2022/01/19 01:39:40;;;;;;;28.00;13.93;;;1.80;99.90;;;;;;2603134;54;20910;31
2022/01/19 01:42:16;;;;;;;26.53;15.20;;;1.90;99.90;;;;;;2603521;54;20860;31
2022/01/19 01:44:53;;;;;;;27.10;14.07;;;1.90;99.90;;;;;;2621619;46;20943;31
2022/01/19 01:47:33;;;;;;;23.83;13.33;;;1.90;99.90;;;;;;2603179;54;21106;31
2022/01/19 01:55:42;;;;;;;20.83;12.25;;;1.90;99.90;;;;;;2603202;54;20885;31
2022/01/19 02:00:50;;;;;;;22.83;12.55;;;1.90;99.90;;;;;;2603305;54;20764;31
2022/01/19 02:03:28;;;;;;;23.30;11.60;;;1.90;99.90;;;;;;2603197;54;20097;31
2022/01/19 02:06:24;;;;;;;24.75;12.60;;;1.90;99.90;;;;;;2621992;46;20855;31
2022/01/19 02:09:13;;;;;;;26.02;13.10;;;1.90;99.90;;;;;;2621993;46;20033;31
2022/01/19 02:25:43;;;;;;;23.73;11.35;;;2.00;99.90;;;;;;2603259;54;20931;31
2022/01/19 02:41:49;;;;;;;18.42;9.52;;;2.00;99.90;;;;;;2603273;54;20037;31
2022/01/19 02:44:41;;;;;;;21.63;10.90;;;2.00;99.90;;;;;;2603215;54;20030;31
2022/01/19 02:50:02;;;;;;;22.63;11.17;;;2.00;99.90;;;;;;2603295;54;20857;31
2022/01/19 02:52:38;;;;;;;20.38;11.35;;;2.00;99.90;;;;;;2603128;54;20029;31
2022/01/19 02:55:13;;;;;;;17.88;10.30;;;2.10;99.90;;;;;;2603168;54;20036;31
2022/01/19 02:57:47;;;;;;;22.40;11.00;;;2.10;99.90;;;;;;2603146;54;20030;31
2022/01/19 03:08:47;;;;;;;17.30;10.63;;;2.10;99.90;;;;;;2603107;54;20760;31
2022/01/19 03:11:25;;;;;;;19.35;10.40;;;2.10;99.90;;;;;;2621610;47;20052;31
2022/01/19 03:14:01;;;;;;;19.05;9.32;;;2.10;99.90;;;;;;2621787;47;20902;31
2022/01/19 03:16:36;;;;;;;17.93;9.93;;;2.10;99.90;;;;;;2620966;47;20031;31
2022/01/19 03:19:11;;;;;;;19.90;9.40;;;2.10;99.90;;;;;;2603224;54;20029;31
2022/01/19 03:21:46;;;;;;;23.50;10.13;;;2.10;99.90;;;;;;2621317;47;20026;31
2022/01/19 03:24:24;;;;;;;16.77;10.03;;;2.10;99.90;;;;;;2602987;54;20768;31
2022/01/19 03:26:59;;;;;;;18.08;9.45;;;2.10;99.90;;;;;;2602989;54;20081;31
2022/01/19 03:29:49;;;;;;;14.32;8.18;;;2.10;99.90;;;;;;2621899;47;20880;31
2022/01/19 03:32:25;;;;;;;19.10;8.52;;;2.10;99.90;;;;;;2701674;39;22431;31
2022/01/19 03:34:59;;;;;;;15.07;8.87;;;2.10;99.90;;;;;;2602902;54;20779;31
2022/01/19 03:37:34;;;;;;;15.57;8.38;;;2.10;99.90;;;;;;2603004;54;20882;31
2022/01/19 03:40:14;;;;;;;16.05;8.80;;;2.10;99.90;;;;;;2603069;54;20022;31
2022/01/19 03:42:49;;;;;;;16.67;8.32;;;2.10;99.90;;;;;;2603102;54;20029;31
2022/01/19 03:45:27;;;;;;;14.85;8.07;;;2.10;99.90;;;;;;2603077;54;20899;31
2022/01/19 03:48:18;;;;;;;17.00;7.70;;;2.10;99.90;;;;;;2602822;54;20786;31
2022/01/19 03:50:53;;;;;;;14.57;6.85;;;2.10;99.90;;;;;;2621594;47;20034;31
2022/01/19 03:53:27;;;;;;;12.65;7.50;;;2.10;99.90;;;;;;2602952;54;20049;31
2022/01/19 03:56:04;;;;;;;20.15;8.25;;;2.10;99.90;;;;;;2602838;54;20035;31
2022/01/19 03:58:38;;;;;;;17.88;6.95;;;2.10;99.90;;;;;;2603121;54;20026;31
2022/01/19 04:01:13;;;;;;;17.87;7.57;;;2.10;99.90;;;;;;2603177;54;20902;31
2022/01/19 04:06:57;;;;;;;13.90;7.45;;;2.10;99.90;;;;;;2622330;46;20034;31
2022/01/19 04:09:31;;;;;;;17.00;7.28;;;2.10;99.90;;;;;;2603736;54;20042;31
2022/01/19 04:12:12;;;;;;;20.52;7.85;;;2.10;99.90;;;;;;2603844;54;20022;31
2022/01/19 04:14:45;;;;;;;19.10;8.27;;;2.10;99.90;;;;;;2603810;54;20022;31
2022/01/19 04:17:19;;;;;;;13.48;7.43;;;2.10;99.90;;;;;;2622003;46;20239;31
2022/01/19 04:19:53;;;;;;;15.23;6.90;;;2.10;99.90;;;;;;2603780;54;20038;31
2022/01/19 04:22:30;;;;;;;17.50;7.35;;;2.10;99.90;;;;;;2702416;39;21118;31
2022/01/19 04:25:12;;;;;;;13.25;7.72;;;2.10;99.90;;;;;;2603764;54;20085;31
2022/01/19 04:27:46;;;;;;;20.30;7.95;;;2.10;99.90;;;;;;2603527;54;20160;31
2022/01/19 04:30:27;;;;;;;17.17;6.93;;;2.20;99.90;;;;;;2603906;54;20069;31
2022/01/19 04:33:11;;;;;;;20.52;7.88;;;2.20;99.90;;;;;;2603786;54;20026;31
2022/01/19 04:35:50;;;;;;;11.83;6.83;;;2.10;99.90;;;;;;2603293;54;20033;31
2022/01/19 05:04:26;;;;;;;11.65;6.15;;;2.20;99.90;;;;;;2603441;54;20022;31
2022/01/19 05:07:18;;;;;;;13.68;6.85;;;2.20;99.90;;;;;;2603679;54;20049;31
2022/01/19 05:15:26;;;;;;;;;;;2.30;99.90;;;;;;2603656;54;20050;31
2022/01/19 05:18:02;;;;;;;13.02;6.95;;;2.30;99.90;;;;;;2603316;54;20786;31
2022/01/19 05:20:40;;;;;;;15.45;6.40;;;2.30;99.90;;;;;;2765032;31;20109;31
2022/01/19 05:23:18;;;;;;;10.95;6.25;;;2.30;99.90;;;;;;2603528;54;20682;31
2022/01/19 05:25:53;;;;;;;12.63;6.63;;;2.20;99.90;;;;;;2603617;54;20033;31
2022/01/19 05:28:37;;;;;;;12.52;5.88;;;2.30;99.90;;;;;;2603390;54;20035;31
2022/01/19 05:33:43;;;;;;;13.95;6.15;;;2.20;99.90;;;;;;2621894;46;19930;31
2022/01/19 05:36:21;;;;;;;14.50;7.35;;;2.30;99.90;;;;;;2603400;54;20038;31
2022/01/19 05:39:27;;;;;;;17.83;7.38;;;2.30;99.90;;;;;;2603552;54;20026;31
2022/01/19 05:42:17;;;;;;;16.90;8.00;;;2.30;99.90;;;;;;2621969;46;20023;31
2022/01/19 05:44:54;;;;;;;17.55;7.80;;;2.30;99.90;;;;;;2603316;54;20046;31
2022/01/19 05:47:27;;;;;;;15.27;7.65;;;2.30;99.90;;;;;;2603386;54;20023;31
2022/01/19 05:50:01;;;;;;;14.40;8.00;;;2.30;99.90;;;;;;2603260;54;20030;31
2022/01/19 05:55:11;;;;;;;19.48;8.77;;;2.30;99.90;;;;;;2603335;54;20895;31
2022/01/19 05:57:45;;;;;;;18.77;9.15;;;2.30;99.90;;;;;;2603478;54;20057;31
2022/01/19 06:00:17;;;;;;;15.10;8.63;;;2.30;99.90;;;;;;2603230;54;20038;31
2022/01/19 06:02:57;;;;;;;17.80;9.27;;;2.30;99.90;;;;;;2603568;54;20027;31
2022/01/19 06:05:37;;;;;;;22.80;9.77;;;2.20;99.90;;;;;;2603432;54;20029;31
2022/01/19 06:08:45;;;;;;;16.88;8.68;;;2.30;99.90;;;;;;2603431;54;20235;31
2022/01/19 06:11:24;;;;;;;16.65;9.77;;;2.30;99.90;;;;;;2603209;54;20057;31
2022/01/19 06:13:59;;;;;;;24.92;10.82;;;2.30;99.90;;;;;;2603465;54;20026;31
2022/01/19 06:16:33;;;;;;;23.88;10.63;;;2.30;99.90;;;;;;2603252;54;20128;31
2022/01/19 06:19:08;;;;;;;21.48;11.52;;;2.30;99.90;;;;;;2603039;54;20026;31
2022/01/19 06:21:43;;;;;;;23.77;13.27;;;2.20;99.90;;;;;;2621724;46;20022;31
2022/01/19 06:24:17;;;;;;;26.27;11.95;;;2.20;99.90;;;;;;2603380;54;20325;31
2022/01/19 06:26:51;;;;;;;23.95;11.65;;;2.30;99.90;;;;;;2603280;54;20026;31
2022/01/19 06:29:28;;;;;;;17.58;10.05;;;2.20;99.90;;;;;;2603511;54;20038;31
2022/01/19 06:32:03;;;;;;;17.15;10.05;;;2.20;99.90;;;;;;2603409;54;20109;31
2022/01/19 06:34:37;;;;;;;20.95;11.20;;;2.20;99.90;;;;;;2603144;54;20097;31
2022/01/19 06:37:35;;;;;;;21.63;10.90;;;2.20;99.90;;;;;;2602934;54;20110;31
2022/01/19 06:40:32;;;;;;;20.70;10.85;;;2.20;99.90;;;;;;2602974;54;20081;31
2022/01/19 06:43:06;;;;;;;21.15;10.75;;;2.20;99.90;;;;;;2602594;54;20041;31
2022/01/19 06:45:42;;;;;;;19.88;10.82;;;2.20;99.90;;;;;;2603119;54;20931;31
2022/01/19 06:48:18;;;;;;;19.45;10.32;;;2.20;99.90;;;;;;2603371;54;20058;31
2022/01/19 06:50:53;;;;;;;21.58;11.15;;;2.20;99.90;;;;;;2602891;54;20100;31
2022/01/19 06:53:35;;;;;;;18.50;10.48;;;2.10;99.90;;;;;;2602991;54;20799;31
2022/01/19 06:59:02;;;;;;;17.93;10.40;;;2.20;99.90;;;;;;2611686;46;20085;31
2022/01/19 07:01:45;;;;;;;22.40;10.90;;;2.20;99.90;;;;;;2701704;39;22455;31
2022/01/19 07:04:28;;;;;;;22.45;11.48;;;2.10;99.90;;;;;;2621514;46;20023;31
2022/01/19 07:07:04;;;;;;;22.80;10.80;;;2.10;99.90;;;;;;2621716;46;20821;31
2022/01/19 07:09:51;;;;;;;17.58;10.55;;;2.10;99.90;;;;;;2602973;54;20863;31
2022/01/19 07:12:26;;;;;;;18.23;11.07;;;2.00;99.90;;;;;;2603221;54;20030;31
2022/01/19 07:15:02;;;;;;;21.50;12.38;;;2.00;99.90;;;;;;2603024;54;20033;31
2022/01/19 07:17:41;;;;;;;20.85;12.32;;;2.00;99.90;;;;;;2602972;54;20030;31
2022/01/19 07:20:16;;;;;;;21.20;11.88;;;2.00;99.90;;;;;;2621682;47;20046;31
2022/01/19 07:25:25;;;;;;;20.02;12.50;;;2.00;99.90;;;;;;2602883;54;20081;31
2022/01/19 07:28:01;;;;;;;19.88;12.30;;;2.00;99.90;;;;;;2602974;54;20092;31
2022/01/19 07:30:37;;;;;;;19.38;12.18;;;2.00;99.90;;;;;;2603162;54;20033;31
2022/01/19 07:33:15;;;;;;;18.40;11.90;;;2.00;99.90;;;;;;2602762;54;20057;31
2022/01/19 07:35:52;;;;;;;25.95;12.52;;;2.00;99.90;;;;;;2602951;54;20034;31
2022/01/19 07:38:32;;;;;;;22.27;11.52;;;2.00;99.90;;;;;;2603940;54;20027;31
2022/01/19 07:41:13;;;;;;;20.95;12.50;;;2.00;99.90;;;;;;2603955;54;20030;31
2022/01/19 07:43:54;;;;;;;21.45;12.45;;;2.00;99.90;;;;;;2603841;54;20050;31
2022/01/19 07:46:30;;;;;;;21.45;12.20;;;2.10;99.90;;;;;;2603828;54;20026;31
2022/01/19 07:49:17;;;;;;;21.63;12.50;;;2.10;99.90;;;;;;2603786;54;20030;31
2022/01/19 07:52:05;;;;;;;23.85;12.52;;;2.30;99.90;;;;;;2603640;54;20093;31
2022/01/19 07:54:52;;;;;;;20.65;11.90;;;2.30;99.90;;;;;;2603818;54;20027;31
2022/01/19 07:57:51;;;;;;;22.95;13.85;;;2.50;99.90;;;;;;2603549;54;20073;31
2022/01/19 08:00:38;;;;;;;25.73;13.68;;;2.70;99.90;;;;;;2622365;46;20921;31
2022/01/19 08:03:31;;;;;;;22.80;13.02;;;3.00;99.90;;;;;;2603771;54;20909;31
2022/01/19 08:06:21;;;;;;;21.38;13.73;;;3.30;99.90;;;;;;2621950;46;20048;31
2022/01/19 08:09:02;;;;;;;21.35;14.38;;;3.40;99.90;;;;;;2603664;54;20112;31
2022/01/19 08:11:41;;;;;;;23.35;13.00;;;3.50;99.90;;;;;;2603606;54;20765;31
2022/01/19 08:14:36;;;;;;;19.65;11.40;;;3.50;99.90;;;;;;2603719;54;20019;31
2022/01/19 08:17:13;;;;;;;17.48;11.45;;;3.60;99.90;;;;;;2603614;54;20896;31
2022/01/19 08:19:52;;;;;;;16.02;10.43;;;3.60;99.90;;;;;;2603325;54;20106;31
2022/01/19 08:22:30;;;;;;;15.73;9.93;;;3.70;99.90;;;;;;2621975;46;20032;31
2022/01/19 08:25:25;;;;;;;15.02;10.75;;;3.90;99.90;;;;;;2603599;54;20053;31
2022/01/19 08:28:00;;;;;;;17.08;10.13;;;4.00;99.90;;;;;;2603864;54;20819;31
2022/01/19 08:30:41;;;;;;;18.10;10.38;;;4.00;99.90;;;;;;2603736;54;20023;31
2022/01/19 08:33:16;;;;;;;16.23;10.07;;;4.30;99.90;;;;;;2603727;54;20092;31
2022/01/19 08:36:00;;;;;;;16.30;10.43;;;4.40;99.90;;;;;;2603514;54;20733;31
2022/01/19 08:38:44;;;;;;;15.60;10.77;;;4.50;99.90;;;;;;2622430;46;20760;31
2022/01/19 08:41:33;;;;;;;16.50;10.80;;;4.70;99.90;;;;;;2603686;54;20568;31
2022/01/19 08:44:07;;;;;;;17.67;11.20;;;4.90;99.90;;;;;;2603520;54;20026;31
2022/01/19 08:46:50;;;;;;;18.80;11.70;;;5.40;99.90;;;;;;2621971;46;20026;31
2022/01/19 08:50:09;;;;;;;18.47;11.83;;;5.70;99.90;;;;;;2603694;54;20049;31
2022/01/19 08:53:19;;;;;;;21.67;13.37;;;6.00;99.90;;;;;;2603629;54;20949;31
2022/01/19 08:56:09;;;;;;;22.60;13.13;;;6.00;99.90;;;;;;2603468;54;20989;31
2022/01/19 08:58:43;;;;;;;19.15;12.38;;;6.10;99.90;;;;;;2602668;54;20033;31
2022/01/19 09:01:22;;;;;;;21.33;13.32;;;6.20;99.90;;;;;;2603513;54;20030;31
2022/01/19 09:03:58;;;;;;;22.90;15.45;;;6.30;99.90;;;;;;2603526;54;20883;31
2022/01/19 09:09:08;;;;;;;24.00;13.67;;;6.70;99.90;;;;;;2621578;46;20034;31
2022/01/19 09:11:51;;;;;;;26.05;13.15;;;6.60;99.90;;;;;;2603686;54;20057;31
2022/01/19 09:14:30;;;;;;;21.40;11.15;;;6.60;99.90;;;;;;2603369;54;20026;31
2022/01/19 09:17:07;;;;;;;17.98;10.75;;;6.60;99.90;;;;;;2603476;54;20038;31
2022/01/19 09:19:42;;;;;;;19.00;12.10;;;6.90;99.90;;;;;;2603731;54;21868;31
2022/01/19 09:22:20;;;;;;;18.38;11.23;;;7.00;99.90;;;;;;2603410;54;20051;31
2022/01/19 09:24:54;;;;;;;20.63;11.02;;;7.10;99.90;;;;;;2603454;54;20769;31
2022/01/19 09:30:10;;;;;;;19.92;12.27;;;6.90;99.90;;;;;;2603699;54;20035;31
2022/01/19 09:32:55;;;;;;;21.65;11.55;;;7.00;99.90;;;;;;2603375;54;20027;31
2022/01/19 09:35:39;;;;;;;20.95;12.50;;;7.10;99.90;;;;;;2603573;54;20030;31
2022/01/19 09:38:19;;;;;;;24.30;12.93;;;7.30;99.90;;;;;;2621836;46;20918;31
2022/01/19 09:40:54;;;;;;;22.50;12.68;;;7.20;99.90;;;;;;2602897;54;20058;31
2022/01/19 09:43:33;;;;;;;28.90;14.60;;;7.40;99.90;;;;;;2603595;54;20873;31
2022/01/19 09:46:13;;;;;;;18.92;12.32;;;7.40;99.90;;;;;;2602784;54;21194;31
2022/01/19 09:48:47;;;;;;;21.60;12.15;;;7.40;99.90;;;;;;2621730;46;20030;31
2022/01/19 09:51:23;;;;;;;21.48;12.70;;;7.30;99.90;;;;;;2603535;54;20867;31
2022/01/19 09:54:01;;;;;;;18.47;11.83;;;7.30;99.90;;;;;;2622417;46;20865;31
2022/01/19 09:56:41;;;;;;;22.75;11.77;;;7.30;99.90;;;;;;2603400;54;20297;31
2022/01/19 09:59:18;;;;;;;20.45;11.40;;;7.40;99.90;;;;;;2603261;54;20030;31
2022/01/19 10:01:58;;;;;;;19.85;11.23;;;7.50;99.90;;;;;;2603790;54;20042;31
2022/01/19 10:04:34;;;;;;;22.10;10.75;;;7.70;99.90;;;;;;2621793;46;20026;31
2022/01/19 10:07:16;;;;;;;15.07;10.27;;;7.80;99.90;;;;;;2701966;39;20630;31
2022/01/19 10:09:53;;;;;;;18.77;10.30;;;7.90;99.90;;;;;;2603270;54;20056;31
2022/01/19 10:18:21;;;;;;;19.55;10.05;;;8.30;99.90;;;;;;2603418;54;20026;31
2022/01/19 10:21:07;;;;;;;22.27;11.95;;;8.40;99.90;;;;;;2621632;46;20034;31
2022/01/19 10:23:44;;;;;;;27.35;13.02;;;8.50;99.90;;;;;;2603296;54;20088;31
2022/01/19 10:26:26;;;;;;;18.35;9.90;;;8.40;99.90;;;;;;2621278;46;20501;31
2022/01/19 10:29:00;;;;;;;17.67;10.10;;;8.40;99.90;;;;;;2603598;54;20116;31
2022/01/19 10:31:41;;;;;;;17.00;9.20;;;8.40;99.90;;;;;;2621991;46;20027;31
2022/01/19 10:34:22;;;;;;;15.00;8.75;;;8.30;99.90;;;;;;2603464;54;20097;31
2022/01/19 10:37:02;;;;;;;20.30;11.03;;;8.30;99.90;;;;;;2602635;54;20918;31
2022/01/19 10:40:02;;;;;;;17.60;10.17;;;8.30;99.90;;;;;;2602450;54;21263;31
2022/01/19 10:42:39;;;;;;;20.33;10.93;;;8.20;99.90;;;;;;2603471;54;20786;31
2022/01/19 10:45:15;;;;;;;16.30;9.05;;;8.20;99.90;;;;;;2603329;54;20211;31
2022/01/19 10:47:53;;;;;;;14.90;9.05;;;8.20;99.90;;;;;;2603303;54;20871;31
2022/01/19 10:50:33;;;;;;;21.83;11.35;;;8.30;99.90;;;;;;2603485;54;20034;31
2022/01/19 10:53:13;;;;;;;20.27;10.75;;;8.40;99.90;;;;;;2603203;54;20828;31
2022/01/19 10:55:48;;;;;;;18.90;10.70;;;8.40;99.90;;;;;;2603204;54;20095;31
2022/01/19 10:58:25;;;;;;;18.67;10.95;;;8.30;99.90;;;;;;2603041;54;20026;31
2022/01/19 11:00:58;;;;;;;;;;;8.30;99.90;;;;;;2621536;46;20840;31
2022/01/19 11:03:33;;;;;;;18.17;10.25;;;8.20;99.90;;;;;;2603038;54;20005;31
2022/01/19 11:06:14;;;;;;;19.40;11.40;;;8.10;99.90;;;;;;2603193;54;20554;31
2022/01/19 11:08:50;;;;;;;21.63;11.10;;;7.90;99.90;;;;;;2602351;54;20093;31
2022/01/19 11:11:29;;;;;;;17.02;8.70;;;7.60;99.90;;;;;;2602663;54;20859;31
2022/01/19 11:14:08;;;;;;;16.45;10.57;;;7.50;99.90;;;;;;2772940;31;20635;31
2022/01/19 11:16:45;;;;;;;12.48;8.73;;;7.30;99.90;;;;;;2621522;47;20110;31
2022/01/19 11:19:20;;;;;;;16.63;7.97;;;7.40;99.90;;;;;;2603145;54;20038;31
2022/01/19 11:22:26;;;;;;;13.80;8.10;;;7.30;99.90;;;;;;2701843;39;20462;31
2022/01/19 11:25:09;;;;;;;17.58;10.18;;;7.10;99.90;;;;;;2603151;54;20131;31
2022/01/19 11:28:03;;;;;;;15.98;9.73;;;7.00;99.90;;;;;;2602990;54;20926;31
2022/01/19 11:30:39;;;;;;;16.45;9.55;;;6.80;99.90;;;;;;2621221;47;20899;31
2022/01/19 11:33:16;;;;;;;15.60;9.77;;;6.60;99.90;;;;;;2621318;47;20080;31
2022/01/19 11:35:53;;;;;;;14.48;8.32;;;6.50;99.90;;;;;;2719914;39;20557;31
2022/01/19 11:38:45;;;;;;;11.50;7.80;;;6.30;99.90;;;;;;2602855;54;20050;31
2022/01/19 11:41:47;;;;;;;13.82;8.88;;;6.20;99.90;;;;;;2701234;39;20474;31
2022/01/19 11:44:24;;;;;;;15.87;9.10;;;6.20;99.90;;;;;;2602942;54;20145;31
2022/01/19 11:47:02;;;;;;;15.65;8.70;;;6.20;99.90;;;;;;2602849;54;20027;31
2022/01/19 11:49:47;;;;;;;15.90;9.35;;;6.10;99.90;;;;;;2602796;54;20034;31
2022/01/19 11:52:24;;;;;;;16.13;8.85;;;6.10;99.90;;;;;;2603154;54;20604;31
2022/01/19 11:55:33;;;;;;;15.45;9.60;;;6.00;99.90;;;;;;2602909;54;20757;31
2022/01/19 11:58:15;;;;;;;23.83;12.05;;;6.00;99.90;;;;;;2602749;54;20030;31
2022/01/19 12:00:52;;;;;;;26.52;14.07;;;6.00;99.90;;;;;;2602725;54;20859;31
2022/01/19 12:03:35;;;;;;;19.40;10.77;;;5.90;99.90;;;;;;2602633;54;19938;31
2022/01/19 12:06:35;;;;;;;15.90;10.37;;;5.80;99.90;;;;;;2602678;54;20900;31
2022/01/19 12:09:15;;;;;;;12.87;9.10;;;5.70;99.90;;;;;;2603013;54;20243;31
2022/01/19 12:11:57;;;;;;;14.38;9.20;;;5.60;99.90;;;;;;2602931;54;20042;31
2022/01/19 12:14:50;;;;;;;16.23;10.07;;;5.50;99.90;;;;;;2602780;54;20026;31
2022/01/19 12:17:28;;;;;;;19.05;12.65;;;5.40;99.90;;;;;;2602998;54;21356;31
2022/01/19 12:20:03;;;;;;;24.27;14.23;;;5.30;99.90;;;;;;2602738;54;20083;31
2022/01/19 12:22:55;;;;;;;32.42;14.88;;;5.30;99.90;;;;;;2602908;54;20038;31
2022/01/19 12:25:32;;;;;;;23.00;12.25;;;5.20;99.90;;;;;;2603800;54;20030;31
2022/01/19 12:28:11;;;;;;;18.67;11.50;;;5.20;99.90;;;;;;2603336;54;20090;31
2022/01/19 12:30:48;;;;;;;19.45;10.80;;;5.10;99.90;;;;;;2603684;54;20036;31
2022/01/19 12:33:26;;;;;;;18.50;11.02;;;5.10;99.90;;;;;;2603315;54;20910;31
2022/01/19 12:36:03;;;;;;;15.43;10.57;;;5.10;99.90;;;;;;2603549;54;20140;31
2022/01/19 12:38:39;;;;;;;19.47;10.67;;;5.10;99.90;;;;;;2603451;54;20038;31
2022/01/19 12:41:17;;;;;;;15.75;10.82;;;5.10;99.90;;;;;;2621831;46;20104;31
2022/01/19 12:44:00;;;;;;;18.55;12.00;;;5.10;99.90;;;;;;2609804;46;20891;31
2022/01/19 12:46:40;;;;;;;21.17;11.18;;;5.10;99.90;;;;;;2702210;39;20497;31
2022/01/19 12:49:29;;;;;;;15.77;10.90;;;5.00;99.90;;;;;;2702002;39;20458;31
2022/01/19 12:52:03;;;;;;;19.33;11.53;;;5.00;99.90;;;;;;2622265;46;20048;31
2022/01/19 12:54:41;;;;;;;21.50;12.60;;;5.00;99.90;;;;;;2603504;54;20897;31
2022/01/19 12:57:18;;;;;;;21.83;12.82;;;5.00;99.90;;;;;;2621783;46;20080;31
2022/01/19 12:59:58;;;;;;;20.20;13.60;;;5.00;99.90;;;;;;2621923;46;20771;31
2022/01/19 13:05:09;;;;;;;20.08;12.48;;;5.00;99.90;;;;;;2702141;39;20462;31
2022/01/19 13:07:46;;;;;;;40.25;24.40;;;5.10;99.90;;;;;;2603526;54;20581;31
2022/01/19 13:10:25;;;;;;;29.75;17.00;;;5.00;99.90;;;;;;2621613;46;20027;31
2022/01/19 13:13:09;;;;;;;28.23;13.98;;;5.10;99.90;;;;;;2603559;54;20026;31
2022/01/19 13:15:43;;;;;;;27.45;16.58;;;5.10;99.90;;;;;;2603496;54;20062;31
2022/01/19 13:18:33;;;;;;;24.65;13.75;;;5.10;99.90;;;;;;2617085;46;20030;31
2022/01/19 13:21:12;;;;;;;26.03;14.07;;;5.10;99.90;;;;;;2603606;54;20901;31
2022/01/19 13:23:59;;;;;;;20.00;14.13;;;5.10;99.90;;;;;;2621706;46;20968;31
2022/01/19 13:26:53;;;;;;;20.25;12.70;;;5.20;99.90;;;;;;2603392;54;20085;31
2022/01/19 13:29:31;;;;;;;19.52;11.95;;;5.20;99.90;;;;;;2622292;46;20802;31
2022/01/19 13:32:29;;;;;;;20.67;12.05;;;5.20;99.90;;;;;;2603460;54;20030;31
2022/01/19 13:35:09;;;;;;;20.90;12.60;;;5.20;99.90;;;;;;2602943;54;20033;31
2022/01/19 13:37:45;;;;;;;19.25;12.82;;;5.20;99.90;;;;;;2603442;54;20863;31
2022/01/19 13:40:22;;;;;;;21.52;12.85;;;5.20;99.90;;;;;;2622253;46;20049;31
2022/01/19 13:43:03;;;;;;;19.48;11.70;;;5.20;99.90;;;;;;2621994;46;20900;31
2022/01/19 13:45:48;;;;;;;24.60;11.43;;;5.20;99.90;;;;;;2603415;54;20046;31
2022/01/19 13:48:28;;;;;;;22.30;13.20;;;5.20;99.90;;;;;;2702015;39;20471;31
2022/01/19 13:51:09;;;;;;;19.45;12.43;;;5.20;99.90;;;;;;2603342;54;20030;31
2022/01/19 13:53:47;;;;;;;21.13;12.45;;;5.20;99.90;;;;;;2621834;46;20120;31
2022/01/19 13:56:27;;;;;;;19.65;12.90;;;5.20;99.90;;;;;;2603365;54;20042;31
2022/01/19 13:59:09;;;;;;;17.67;11.68;;;5.20;99.90;;;;;;2603399;54;20109;31
2022/01/19 14:01:48;;;;;;;20.45;12.35;;;5.30;99.90;;;;;;2603261;54;20053;31
2022/01/19 14:07:14;;;;;;;19.53;11.07;;;5.20;99.90;;;;;;2603231;54;20860;31
2022/01/19 14:09:49;;;;;;;20.33;12.30;;;5.30;99.90;;;;;;2603099;54;20270;31
2022/01/19 14:12:25;;;;;;;20.40;12.00;;;5.30;99.90;;;;;;2603282;54;20054;31
2022/01/19 14:15:02;;;;;;;17.33;11.83;;;5.20;99.90;;;;;;2602547;54;20041;31
2022/01/19 14:17:42;;;;;;;20.23;12.37;;;5.30;99.90;;;;;;2621307;46;20883;31
2022/01/19 14:20:19;;;;;;;20.77;13.07;;;5.20;99.90;;;;;;2603414;54;20750;31
2022/01/19 14:23:14;;;;;;;17.10;12.45;;;5.20;99.90;;;;;;2603183;54;20028;31
2022/01/19 14:25:50;;;;;;;22.80;12.77;;;5.20;99.90;;;;;;2621674;46;20064;31
2022/01/19 14:28:35;;;;;;;33.20;14.18;;;5.20;99.90;;;;;;2603220;54;20037;31
2022/01/19 14:31:14;;;;;;;19.43;11.80;;;5.20;99.90;;;;;;2603361;54;20026;31
2022/01/19 14:33:53;;;;;;;22.65;12.95;;;5.20;99.90;;;;;;2603389;54;21084;31
2022/01/19 14:36:27;;;;;;;19.05;11.50;;;5.10;99.90;;;;;;2603404;54;20026;31
2022/01/19 14:39:07;;;;;;;20.08;12.57;;;5.20;99.90;;;;;;2603084;54;20026;31
2022/01/19 14:41:44;;;;;;;24.20;13.20;;;5.20;99.90;;;;;;2603100;54;20185;31
2022/01/19 14:44:39;;;;;;;18.05;12.38;;;5.10;99.90;;;;;;2621589;46;20584;31
2022/01/19 14:47:27;;;;;;;18.95;12.52;;;5.10;99.90;;;;;;2621334;46;20030;31
2022/01/19 14:50:02;;;;;;;23.45;13.07;;;5.10;99.90;;;;;;2603192;54;20936;31
2022/01/19 14:52:36;;;;;;;21.92;12.40;;;5.10;99.90;;;;;;2603189;54;20102;31
2022/01/19 14:55:17;;;;;;;21.10;13.20;;;5.00;99.90;;;;;;2603101;54;20190;31
2022/01/19 14:57:53;;;;;;;27.60;15.33;;;5.00;99.90;;;;;;2603278;54;20877;31
2022/01/19 15:00:29;;;;;;;33.70;19.85;;;4.90;99.90;;;;;;2603353;54;20127;31
2022/01/19 15:03:06;;;;;;;48.10;28.40;;;4.90;99.90;;;;;;2603152;54;20030;31
2022/01/19 15:05:43;;;;;;;84.72;52.30;;;4.80;99.90;;;;;;2602982;54;20026;31
2022/01/19 15:08:18;;;;;;;80.13;48.10;;;4.70;99.90;;;;;;2602219;54;20936;31
2022/01/19 15:10:56;;;;;;;56.95;34.78;;;4.70;99.90;;;;;;2603011;54;20053;31
2022/01/19 15:13:35;;;;;;;47.28;30.80;;;4.70;99.90;;;;;;2603011;54;20023;31
2022/01/19 15:18:46;;;;;;;34.67;19.98;;;4.50;99.90;;;;;;2719839;39;20383;31
2022/01/19 15:21:20;;;;;;;33.30;20.80;;;4.40;99.90;;;;;;2603076;54;20030;31
2022/01/19 15:23:57;;;;;;;30.10;19.98;;;4.30;99.90;;;;;;2602856;54;20078;31
2022/01/19 15:26:35;;;;;;;32.27;19.67;;;4.30;99.90;;;;;;2602919;54;20865;31
2022/01/19 15:29:13;;;;;;;31.27;19.83;;;4.20;99.90;;;;;;2602981;54;20321;31
2022/01/19 15:31:53;;;;;;;36.63;20.73;;;4.20;99.90;;;;;;2603146;54;20027;31
2022/01/19 15:34:28;;;;;;;32.45;21.00;;;4.10;99.90;;;;;;2602990;54;20061;31
2022/01/19 15:37:03;;;;;;;32.15;19.95;;;4.00;99.90;;;;;;2603100;54;20030;31
2022/01/19 15:39:39;;;;;;;39.75;20.35;;;4.00;99.90;;;;;;2602991;54;20052;31
2022/01/19 15:42:16;;;;;;;37.27;20.37;;;4.00;99.90;;;;;;2602974;54;20891;31
2022/01/19 15:44:51;;;;;;;33.63;20.05;;;3.90;99.90;;;;;;2603173;54;20254;31
2022/01/19 15:47:28;;;;;;;28.30;17.98;;;3.90;99.90;;;;;;2603155;54;20105;31
2022/01/19 15:50:02;;;;;;;26.67;16.77;;;3.80;99.90;;;;;;2621401;47;20097;31
2022/01/19 15:52:36;;;;;;;29.33;19.08;;;3.80;99.90;;;;;;2603069;54;20802;31
2022/01/19 15:55:12;;;;;;;28.90;19.50;;;3.70;99.90;;;;;;2603025;54;20774;31
2022/01/19 15:58:20;;;;;;;53.58;25.55;;;3.70;99.90;;;;;;2603366;54;20026;31